createdAt,value
2023-02-18T00:00:33.068Z,18.21
2023-02-18T00:03:35.251Z,18.20
2023-02-18T00:06:38.954Z,18.19
2023-02-18T00:09:41.056Z,18.18
2023-02-18T00:12:43.576Z,18.18
2023-02-18T00:15:45.725Z,18.14
2023-02-18T00:18:48.002Z,18.15
2023-02-18T00:21:50.316Z,18.14
2023-02-18T00:24:52.684Z,18.13
2023-02-18T00:27:54.832Z,18.13
2023-02-18T00:30:57.120Z,18.11
2023-02-18T00:33:59.858Z,18.10
2023-02-18T00:37:02.029Z,18.11
2023-02-18T00:40:07.701Z,18.10
2023-02-18T00:43:10.399Z,18.09
2023-02-18T00:46:12.883Z,18.08
2023-02-18T00:49:15.165Z,18.06
2023-02-18T00:52:17.421Z,18.07
2023-02-18T00:55:19.648Z,18.07
2023-02-18T00:58:21.824Z,18.05
2023-02-18T01:01:24.493Z,18.05
2023-02-18T01:04:26.835Z,18.04
2023-02-18T01:07:29.000Z,18.04
2023-02-18T01:10:31.640Z,18.03
2023-02-18T01:13:34.128Z,18.02
2023-02-18T01:16:36.277Z,18.00
2023-02-18T01:19:38.474Z,18.03
2023-02-18T01:22:40.865Z,18.00
2023-02-18T01:25:43.318Z,17.99
2023-02-18T01:28:45.499Z,17.98
2023-02-18T01:31:48.543Z,17.98
2023-02-18T01:34:50.781Z,17.98
2023-02-18T01:37:52.965Z,17.96
2023-02-18T01:40:55.181Z,17.97
2023-02-18T01:44:29.991Z,17.97
2023-02-18T01:47:32.116Z,17.95
2023-02-18T01:50:38.629Z,17.94
2023-02-18T01:53:59.012Z,17.94
2023-02-18T01:57:06.029Z,17.93
2023-02-18T02:00:21.582Z,17.91
2023-02-18T02:03:23.676Z,17.91
2023-02-18T02:06:26.852Z,17.89
2023-02-18T02:09:30.598Z,17.90
2023-02-18T02:13:01.719Z,17.89
2023-02-18T02:16:11.756Z,17.88
2023-02-18T02:20:02.911Z,17.88
2023-02-18T02:23:35.840Z,17.87
2023-02-18T02:26:50.271Z,17.87
2023-02-18T02:30:12.321Z,17.84
2023-02-18T02:33:29.728Z,17.83
2023-02-18T02:36:42.414Z,17.83
2023-02-18T02:39:56.228Z,17.82
2023-02-18T02:43:26.164Z,17.82
2023-02-18T02:46:44.424Z,17.82
2023-02-18T02:49:53.626Z,17.81
2023-02-18T02:53:03.649Z,17.79
2023-02-18T02:56:06.313Z,17.80
2023-02-18T02:59:15.042Z,17.79
2023-02-18T03:02:53.863Z,17.79
2023-02-18T03:06:21.007Z,17.77
2023-02-18T03:09:55.718Z,17.76
2023-02-18T03:13:36.939Z,17.74
2023-02-18T03:17:12.378Z,17.75
2023-02-18T03:20:24.712Z,17.73
2023-02-18T03:23:32.683Z,17.73
2023-02-18T03:26:40.010Z,17.73
2023-02-18T03:29:45.256Z,17.73
2023-02-18T03:32:49.871Z,17.72
2023-02-18T03:35:54.482Z,17.70
2023-02-18T03:39:11.958Z,17.70
2023-02-18T03:42:14.169Z,17.68
2023-02-18T03:45:16.276Z,17.68
2023-02-18T03:48:18.591Z,17.68
2023-02-18T03:51:21.309Z,17.66
2023-02-18T03:54:23.435Z,17.66
2023-02-18T03:57:25.635Z,17.66
2023-02-18T04:00:27.950Z,17.65
2023-02-18T04:03:30.057Z,17.65
2023-02-18T04:06:32.186Z,17.63
2023-02-18T04:09:34.333Z,17.62
2023-02-18T04:12:36.582Z,17.62
2023-02-18T04:15:38.759Z,17.62
2023-02-18T04:18:40.873Z,17.62
2023-02-18T04:21:43.072Z,17.60
2023-02-18T04:24:45.194Z,17.60
2023-02-18T04:27:47.470Z,17.60
2023-02-18T04:30:49.874Z,17.59
2023-02-18T04:33:52.192Z,17.58
2023-02-18T04:36:54.347Z,17.58
2023-02-18T04:39:56.527Z,17.56
2023-02-18T04:42:59.323Z,17.55
2023-02-18T04:46:01.591Z,17.55
2023-02-18T04:49:03.752Z,17.54
2023-02-18T04:52:06.100Z,17.54
2023-02-18T04:55:08.511Z,17.53
2023-02-18T04:58:10.797Z,17.52
2023-02-18T05:01:13.357Z,17.51
2023-02-18T05:04:17.485Z,17.51
2023-02-18T05:07:20.264Z,17.53
2023-02-18T05:10:22.394Z,17.51
2023-02-18T05:13:24.596Z,17.48
2023-02-18T05:16:26.800Z,17.49
2023-02-18T05:19:28.918Z,17.49
2023-02-18T05:22:31.121Z,17.48
2023-02-18T05:25:33.475Z,17.48
2023-02-18T05:28:35.667Z,17.48
2023-02-18T05:31:38.679Z,17.45
2023-02-18T05:34:41.063Z,17.46
2023-02-18T05:37:43.261Z,17.46
2023-02-18T05:40:45.440Z,17.45
2023-02-18T05:44:06.318Z,17.44
2023-02-18T05:47:11.637Z,17.43
2023-02-18T05:50:14.033Z,17.44
2023-02-18T05:53:17.692Z,17.43
2023-02-18T05:56:19.882Z,17.43
2023-02-18T05:59:22.297Z,17.45
2023-02-18T06:02:24.541Z,17.50
2023-02-18T06:05:26.761Z,17.52
2023-02-18T06:08:28.934Z,17.54
2023-02-18T06:11:31.079Z,17.62
2023-02-18T06:14:33.117Z,17.69
2023-02-18T06:17:35.199Z,17.75
2023-02-18T06:20:38.684Z,17.80
2023-02-18T06:23:40.854Z,17.80
2023-02-18T06:26:42.943Z,17.82
2023-02-18T06:29:44.959Z,17.90
2023-02-18T06:32:46.978Z,17.94
2023-02-18T06:36:00.874Z,17.95
2023-02-18T06:39:05.372Z,17.97
2023-02-18T06:42:07.438Z,18.03
2023-02-18T06:45:09.852Z,18.07
2023-02-18T06:48:12.672Z,18.10
2023-02-18T06:51:16.089Z,18.12
2023-02-18T06:54:18.100Z,18.13
2023-02-18T06:57:20.137Z,18.13
2023-02-18T07:00:22.761Z,18.13
2023-02-18T07:03:24.828Z,18.13
2023-02-18T07:06:26.863Z,18.18
2023-02-18T07:09:28.897Z,18.27
2023-02-18T07:12:31.183Z,18.34
2023-02-18T07:15:33.709Z,18.38
2023-02-18T07:18:35.767Z,18.39
2023-02-18T07:21:37.841Z,18.35
2023-02-18T07:24:39.896Z,18.35
2023-02-18T07:27:42.228Z,18.35
2023-02-18T07:30:44.242Z,18.36
2023-02-18T07:33:46.396Z,18.35
2023-02-18T07:36:48.841Z,18.33
2023-02-18T07:39:51.179Z,18.35
2023-02-18T07:42:53.203Z,18.41
2023-02-18T07:45:55.362Z,18.46
2023-02-18T07:48:58.251Z,18.48
2023-02-18T07:52:00.741Z,18.48
2023-02-18T07:55:02.756Z,18.50
2023-02-18T07:58:04.792Z,18.50
2023-02-18T08:01:15.194Z,18.51
2023-02-18T08:04:17.626Z,18.51
2023-02-18T08:07:21.716Z,18.53
2023-02-18T08:10:23.794Z,18.51
2023-02-18T08:13:25.945Z,18.54
2023-02-18T08:16:28.220Z,18.59
2023-02-18T08:19:30.303Z,18.63
2023-02-18T08:22:32.396Z,18.63
2023-02-18T08:25:34.851Z,18.65
2023-02-18T08:28:36.939Z,18.63
2023-02-18T08:31:39.023Z,18.61
2023-02-18T08:34:41.131Z,18.61
2023-02-18T08:37:53.239Z,18.63
2023-02-18T08:41:06.739Z,18.67
2023-02-18T08:44:09.001Z,18.67
2023-02-18T08:48:17.979Z,18.74
2023-02-18T08:50:33.445Z,18.78
2023-02-18T08:53:35.761Z,18.84
2023-02-18T08:56:37.931Z,18.91
2023-02-18T08:59:40.040Z,18.93
2023-02-18T09:02:42.289Z,18.99
2023-02-18T09:05:44.416Z,19.11
2023-02-18T09:08:46.661Z,19.16
2023-02-18T09:11:49.151Z,19.15
2023-02-18T09:14:51.189Z,19.16
2023-02-18T09:17:53.370Z,19.15
2023-02-18T09:21:00.211Z,19.14
2023-02-18T09:24:02.304Z,19.18
2023-02-18T09:27:04.542Z,19.10
2023-02-18T09:30:07.274Z,18.53
2023-02-18T09:33:09.349Z,18.44
2023-02-18T09:36:11.395Z,18.91
2023-02-18T09:39:13.910Z,19.11
2023-02-18T09:42:20.686Z,19.14
2023-02-18T09:45:23.289Z,19.16
2023-02-18T09:48:36.450Z,19.14
2023-02-18T09:51:38.539Z,19.17
2023-02-18T09:54:41.061Z,19.22
2023-02-18T09:57:51.011Z,19.28
2023-02-18T10:00:54.916Z,19.27
2023-02-18T10:04:11.870Z,19.30
2023-02-18T10:07:28.646Z,19.30
2023-02-18T10:10:39.710Z,19.31
2023-02-18T10:13:41.829Z,19.32
2023-02-18T10:16:44.990Z,19.33
2023-02-18T10:19:48.774Z,19.30
2023-02-18T10:22:52.870Z,19.30
2023-02-18T10:25:56.583Z,19.28
2023-02-18T10:28:59.363Z,19.30
2023-02-18T10:32:04.592Z,19.30
2023-02-18T10:35:19.509Z,19.28
2023-02-18T10:38:44.216Z,19.27
2023-02-18T10:41:59.536Z,19.31
2023-02-18T10:45:10.662Z,19.58
2023-02-18T10:48:21.330Z,19.76
2023-02-18T10:51:28.885Z,19.82
2023-02-18T10:54:59.716Z,19.85
2023-02-18T10:58:01.860Z,19.87
2023-02-18T11:01:08.656Z,19.89
2023-02-18T11:04:17.244Z,19.84
2023-02-18T11:07:29.535Z,19.85
2023-02-18T11:10:35.160Z,19.83
2023-02-18T11:13:37.212Z,19.82
2023-02-18T11:16:42.101Z,19.82
2023-02-18T11:19:51.164Z,19.81
2023-02-18T11:23:18.024Z,19.80
2023-02-18T11:26:34.903Z,19.80
2023-02-18T11:29:37.398Z,19.80
2023-02-18T11:32:39.484Z,19.80
2023-02-18T11:35:50.124Z,19.80
2023-02-18T11:38:55.901Z,19.86
2023-02-18T11:42:07.165Z,19.91
2023-02-18T11:45:27.836Z,19.94
2023-02-18T11:48:29.949Z,19.94
2023-02-18T11:51:38.851Z,19.91
2023-02-18T11:54:40.892Z,19.91
2023-02-18T11:57:57.390Z,19.90
2023-02-18T12:01:02.686Z,19.88
2023-02-18T12:04:27.767Z,19.88
2023-02-18T12:07:44.913Z,19.87
2023-02-18T12:10:48.433Z,19.86
2023-02-18T12:13:56.424Z,19.86
2023-02-18T12:17:39.193Z,19.87
2023-02-18T12:20:56.573Z,19.94
2023-02-18T12:24:26.511Z,19.92
2023-02-18T12:27:43.137Z,19.90
2023-02-18T12:31:07.740Z,19.89
2023-02-18T12:34:26.446Z,19.87
2023-02-18T12:37:52.198Z,19.87
2023-02-18T12:41:10.796Z,19.87
2023-02-18T12:44:38.152Z,19.86
2023-02-18T12:48:11.583Z,19.82
2023-02-18T12:51:51.026Z,19.81
2023-02-18T12:55:39.585Z,19.80
2023-02-18T12:59:00.259Z,19.77
2023-02-18T13:02:29.162Z,19.75
2023-02-18T13:06:08.690Z,19.76
2023-02-18T13:09:48.697Z,19.74
2023-02-18T13:13:13.373Z,19.75
2023-02-18T13:16:20.070Z,19.74
2023-02-18T13:19:33.100Z,19.71
2023-02-18T13:22:36.107Z,19.72
2023-02-18T13:25:39.660Z,19.69
2023-02-18T13:29:03.271Z,19.66
2023-02-18T13:32:26.869Z,19.63
2023-02-18T13:35:44.465Z,19.62
2023-02-18T13:38:52.617Z,19.61
2023-02-18T13:42:16.531Z,19.61
2023-02-18T13:45:32.988Z,19.59
2023-02-18T13:48:48.004Z,19.60
2023-02-18T13:51:55.813Z,19.58
2023-02-18T13:54:58.090Z,19.57
2023-02-18T13:58:00.564Z,19.58
2023-02-18T14:01:11.564Z,19.58
2023-02-18T14:04:42.118Z,19.59
2023-02-18T14:07:49.690Z,19.61
2023-02-18T14:11:14.734Z,19.69
2023-02-18T14:14:35.960Z,19.69
2023-02-18T14:17:42.230Z,19.69
2023-02-18T14:20:51.461Z,19.70
2023-02-18T14:23:58.640Z,19.70
2023-02-18T14:27:14.905Z,19.70
2023-02-18T14:30:19.706Z,19.70
2023-02-18T14:33:22.244Z,19.68
2023-02-18T14:37:15.404Z,19.69
2023-02-18T14:40:23.663Z,19.66
2023-02-18T14:44:20.453Z,19.65
2023-02-18T14:48:01.250Z,19.62
2023-02-18T14:51:03.992Z,19.59
2023-02-18T14:54:13.354Z,19.58
2023-02-18T14:57:21.688Z,19.58
2023-02-18T15:00:28.140Z,19.59
2023-02-18T15:03:30.164Z,19.58
2023-02-18T15:06:37.097Z,19.59
2023-02-18T15:09:47.100Z,19.59
2023-02-18T15:12:49.734Z,19.54
2023-02-18T15:15:54.557Z,19.50
2023-02-18T15:19:06.539Z,19.47
2023-02-18T15:22:18.551Z,19.45
2023-02-18T15:25:20.651Z,19.44
2023-02-18T15:28:35.814Z,19.43
2023-02-18T15:31:39.850Z,19.41
2023-02-18T15:34:43.962Z,19.41
2023-02-18T15:37:47.660Z,19.40
2023-02-18T15:40:54.436Z,19.37
2023-02-18T15:44:04.504Z,19.36
2023-02-18T15:47:09.046Z,19.37
2023-02-18T15:50:25.322Z,19.38
2023-02-18T15:53:27.543Z,19.37
2023-02-18T15:56:41.880Z,19.38
2023-02-18T15:59:47.377Z,19.36
2023-02-18T16:03:15.158Z,19.36
2023-02-18T16:06:31.183Z,19.35
2023-02-18T16:09:37.429Z,19.35
2023-02-18T16:12:40.394Z,19.33
2023-02-18T16:15:44.951Z,19.31
2023-02-18T16:18:47.262Z,19.30
2023-02-18T16:21:49.269Z,19.28
2023-02-18T16:24:56.424Z,19.28
2023-02-18T16:27:58.409Z,19.26
2023-02-18T16:31:00.437Z,19.25
2023-02-18T16:34:02.453Z,19.24
2023-02-18T16:37:24.248Z,19.23
2023-02-18T16:40:32.429Z,19.22
2023-02-18T16:43:34.497Z,19.18
2023-02-18T16:46:37.286Z,19.18
2023-02-18T16:49:40.441Z,19.18
2023-02-18T16:52:42.439Z,19.14
2023-02-18T16:55:44.611Z,19.15
2023-02-18T16:58:46.691Z,19.13
2023-02-18T17:01:48.783Z,19.12
2023-02-18T17:04:54.474Z,19.10
2023-02-18T17:08:11.434Z,19.11
2023-02-18T17:11:33.022Z,19.09
2023-02-18T17:14:38.190Z,19.07
2023-02-18T17:17:40.269Z,19.08
2023-02-18T17:20:42.482Z,19.06
2023-02-18T17:23:45.228Z,19.06
2023-02-18T17:26:47.264Z,19.06
2023-02-18T17:29:49.429Z,19.05
2023-02-18T17:32:51.589Z,19.03
2023-02-18T17:35:53.774Z,19.02
2023-02-18T17:38:56.281Z,19.01
2023-02-18T17:41:58.307Z,19.01
2023-02-18T17:45:02.154Z,18.99
2023-02-18T17:48:04.859Z,18.99
2023-02-18T17:51:07.969Z,18.98
2023-02-18T17:54:17.886Z,18.99
2023-02-18T17:57:20.021Z,18.97
2023-02-18T18:00:44.222Z,18.98
2023-02-18T18:03:49.123Z,18.96
2023-02-18T18:06:51.242Z,18.96
2023-02-18T18:09:54.424Z,18.94
2023-02-18T18:12:57.254Z,18.93
2023-02-18T18:16:00.009Z,18.94
2023-02-18T18:19:02.082Z,18.92
2023-02-18T18:22:06.037Z,18.93
2023-02-18T18:25:34.056Z,18.92
2023-02-18T18:28:37.631Z,18.92
2023-02-18T18:31:39.885Z,18.92
2023-02-18T18:34:44.143Z,18.89
2023-02-18T18:37:46.258Z,18.89
2023-02-18T18:40:49.348Z,18.89
2023-02-18T18:43:51.455Z,18.88
2023-02-18T18:46:53.563Z,18.88
2023-02-18T18:49:55.570Z,18.88
2023-02-18T18:52:57.824Z,18.87
2023-02-18T18:56:03.132Z,18.86
2023-02-18T18:59:05.227Z,18.86
2023-02-18T19:02:14.361Z,18.86
2023-02-18T19:05:23.617Z,18.85
2023-02-18T19:08:25.908Z,18.84
2023-02-18T19:11:28.801Z,18.85
2023-02-18T19:14:31.140Z,18.84
2023-02-18T19:17:33.221Z,18.84
2023-02-18T19:20:36.236Z,18.83
2023-02-18T19:23:38.897Z,18.82
2023-02-18T19:26:41.090Z,18.83
2023-02-18T19:29:43.143Z,18.82
2023-02-18T19:32:46.064Z,18.82
2023-02-18T19:35:48.201Z,18.81
2023-02-18T19:38:51.459Z,18.81
2023-02-18T19:41:53.770Z,18.80
2023-02-18T19:44:56.050Z,18.80
2023-02-18T19:47:59.327Z,18.79
2023-02-18T19:51:05.390Z,18.80
2023-02-18T19:54:07.492Z,18.78
2023-02-18T19:57:09.664Z,18.78
2023-02-18T20:00:15.156Z,18.78
2023-02-18T20:03:17.294Z,18.77
2023-02-18T20:06:21.118Z,18.77
2023-02-18T20:09:23.252Z,18.78
2023-02-18T20:12:25.396Z,18.78
2023-02-18T20:15:27.468Z,18.78
2023-02-18T20:18:29.538Z,18.77
2023-02-18T20:21:31.740Z,18.76
2023-02-18T20:24:34.227Z,18.77
2023-02-18T20:27:39.586Z,18.74
2023-02-18T20:30:44.084Z,18.74
2023-02-18T20:33:46.095Z,18.74
2023-02-18T20:36:51.632Z,18.74
2023-02-18T20:39:53.704Z,18.74
2023-02-18T20:42:55.748Z,18.73
2023-02-18T20:46:06.813Z,18.72
2023-02-18T20:49:13.784Z,18.74
2023-02-18T20:52:16.315Z,18.72
2023-02-18T20:55:18.374Z,18.72
2023-02-18T20:58:20.414Z,18.71
2023-02-18T21:01:22.603Z,18.71
2023-02-18T21:04:24.818Z,18.71
2023-02-18T21:07:26.894Z,18.70
2023-02-18T21:10:28.920Z,18.70
2023-02-18T21:13:31.334Z,18.69
2023-02-18T21:16:34.666Z,18.69
2023-02-18T21:19:36.826Z,18.70
2023-02-18T21:22:38.882Z,18.69
2023-02-18T21:25:40.899Z,18.70
2023-02-18T21:28:46.019Z,18.68
2023-02-18T21:31:48.201Z,18.67
2023-02-18T21:34:50.407Z,18.66
2023-02-18T21:37:52.855Z,18.65
2023-02-18T21:40:55.015Z,18.65
2023-02-18T21:43:57.167Z,18.64
2023-02-18T21:46:59.216Z,18.65
2023-02-18T21:50:01.300Z,18.65
2023-02-18T21:53:04.371Z,18.67
2023-02-18T21:56:11.538Z,18.67
2023-02-18T21:59:13.602Z,18.68
2023-02-18T22:02:19.318Z,18.66
2023-02-18T22:05:21.609Z,18.66
2023-02-18T22:08:23.723Z,18.65
2023-02-18T22:11:25.942Z,18.65
2023-02-18T22:14:28.027Z,18.64
2023-02-18T22:17:32.051Z,18.63
2023-02-18T22:20:34.104Z,18.62
2023-02-18T22:23:36.235Z,18.62
2023-02-18T22:26:38.397Z,18.62
2023-02-18T22:29:40.573Z,18.61
2023-02-18T22:32:42.633Z,18.58
2023-02-18T22:35:44.638Z,18.58
2023-02-18T22:38:47.152Z,18.57
2023-02-18T22:41:49.821Z,18.58
2023-02-18T22:44:51.918Z,18.57
2023-02-18T22:47:53.980Z,18.57
2023-02-18T22:50:56.025Z,18.56
2023-02-18T22:53:59.693Z,18.55
2023-02-18T22:57:01.732Z,18.54
2023-02-18T23:00:09.264Z,18.55
2023-02-18T23:03:11.254Z,18.55
2023-02-18T23:06:13.357Z,18.53
2023-02-18T23:09:22.170Z,18.53
2023-02-18T23:12:24.605Z,18.52
2023-02-18T23:15:26.697Z,18.51
2023-02-18T23:18:29.793Z,18.50
2023-02-18T23:21:31.885Z,18.49
2023-02-18T23:24:37.153Z,18.50
2023-02-18T23:27:39.210Z,18.49
2023-02-18T23:30:42.246Z,18.48
2023-02-18T23:33:45.748Z,18.46
2023-02-18T23:36:47.963Z,18.46
2023-02-18T23:39:50.198Z,18.46
2023-02-18T23:42:55.684Z,18.46
2023-02-18T23:45:57.809Z,18.46
2023-02-18T23:49:00.583Z,18.43
2023-02-18T23:52:02.661Z,18.43
2023-02-18T23:55:04.981Z,18.42
2023-02-18T23:58:07.253Z,18.40
